Time;durP1;ratioP1;P1;durP2;ratioP2;P2;SDS_P1;SDS_P2;PMS_P1;PMS_P2;Temp;Humidity;BMP_temperature;BMP_pressure;BME280_temperature;BME280_humidity;BME280_pressure;Samples;Min_cycle;Max_cycle;Signal;HPM_P1;HPM_P2
2022/06/07 00:00:18;;;;;;;1.15;0.70;;;;;;;17.52;nan;100446.88;4985176;28;20360;-73
2022/06/07 00:02:43;;;;;;;1.55;0.80;;;;;;;17.51;nan;100447.88;4990478;28;20027;-72
2022/06/07 00:05:09;;;;;;;1.70;0.73;;;;;;;17.52;nan;100446.88;4989257;28;20128;-73
2022/06/07 00:07:34;;;;;;;1.33;0.70;;;;;;;17.47;nan;100452.00;4990122;28;20053;-73
2022/06/07 00:09:59;;;;;;;1.45;0.98;;;;;;;17.48;nan;100445.59;4993898;28;20068;-73
2022/06/07 00:12:26;;;;;;;1.27;0.80;;;;;;;17.48;nan;100450.94;4989529;28;20042;-73
2022/06/07 00:14:52;;;;;;;0.88;0.73;;;;;;;17.45;nan;100451.34;4970374;28;20034;-73
2022/06/07 00:17:17;;;;;;;1.02;0.60;;;;;;;17.42;nan;100449.06;4994365;28;20049;-73
2022/06/07 00:19:42;;;;;;;1.40;0.80;;;;;;;17.41;nan;100452.78;4988542;28;20129;-73
2022/06/07 00:22:09;;;;;;;1.20;0.70;;;;;;;17.41;nan;100456.25;4986504;28;20026;-73
2022/06/07 00:24:35;;;;;;;1.40;0.93;;;;;;;17.43;nan;100452.59;4987996;28;20122;-73
2022/06/07 00:27:01;;;;;;;1.80;0.90;;;;;;;17.43;nan;100453.41;4988292;28;20133;-73
2022/06/07 00:29:27;;;;;;;2.45;1.00;;;;;;;17.43;nan;100452.59;4989179;28;20455;-73
2022/06/07 00:31:53;;;;;;;2.35;1.00;;;;;;;17.40;nan;100448.47;4983657;28;20070;-73
2022/06/07 00:34:18;;;;;;;1.45;0.70;;;;;;;17.33;nan;100453.78;4992152;28;20484;-73
2022/06/07 00:36:44;;;;;;;1.40;0.90;;;;;;;17.31;nan;100446.97;5002264;28;20056;-73
2022/06/07 00:39:10;;;;;;;1.40;0.90;;;;;;;17.35;nan;100450.88;4989931;28;20203;-73
2022/06/07 00:41:35;;;;;;;1.60;1.05;;;;;;;17.37;nan;100454.19;4989314;28;20546;-73
2022/06/07 00:44:25;;;;;;;1.95;1.10;;;;;;;17.27;nan;100446.53;4989191;28;20035;-73
2022/06/07 00:47:00;;;;;;;1.85;0.80;;;;;;;17.24;nan;100443.44;4986857;28;20038;-73
2022/06/07 00:49:34;;;;;;;2.05;1.00;;;;;;;17.27;nan;100440.38;4988185;28;20050;-73
2022/06/07 00:51:59;;;;;;;1.98;1.00;;;;;;;17.27;nan;100443.84;4989984;28;20105;-73
2022/06/07 00:54:29;;;;;;;2.15;1.23;;;;;;;17.28;nan;100445.53;4985572;28;20070;-71
2022/06/07 00:56:55;;;;;;;1.67;1.13;;;;;;;17.29;nan;100441.81;4992714;28;20381;-73
2022/06/07 00:59:21;;;;;;;2.25;0.98;;;;;;;17.31;nan;100441.63;5005047;28;20042;-73
2022/06/07 01:01:46;;;;;;;1.80;0.93;;;;;;;17.30;nan;100442.63;4972245;28;20039;-73
2022/06/07 01:04:11;;;;;;;2.03;1.00;;;;;;;17.25;nan;100442.41;4989821;28;20034;-73
2022/06/07 01:12:15;;;;;;;2.38;1.00;;;;;;;17.23;nan;100436.44;4935306;28;20086;-73
2022/06/07 01:14:41;;;;;;;1.58;0.70;;;;;;;17.23;nan;100437.25;4990003;28;20038;-73
2022/06/07 01:17:06;;;;;;;1.48;0.80;;;;;;;17.22;nan;100435.63;4989583;28;20038;-73
2022/06/07 01:19:32;;;;;;;1.30;0.80;;;;;;;17.21;nan;100436.66;4971194;28;20058;-73
2022/06/07 01:21:57;;;;;;;1.10;0.70;;;;;;;17.19;nan;100436.84;4968830;28;20076;-73
2022/06/07 01:24:22;;;;;;;1.20;0.80;;;;;;;17.18;nan;100432.53;4987633;28;20097;-73
2022/06/07 01:26:48;;;;;;;1.77;0.80;;;;;;;17.16;nan;100431.03;4988797;28;20577;-73
2022/06/07 01:29:15;;;;;;;2.03;1.00;;;;;;;17.16;nan;100444.41;4989206;28;20133;-73
2022/06/07 01:31:40;;;;;;;1.15;0.70;;;;;;;17.13;nan;100439.47;4991009;28;20053;-73
2022/06/07 01:34:06;;;;;;;1.35;0.88;;;;;;;17.11;nan;100434.34;4986998;28;20026;-73
2022/06/07 01:36:31;;;;;;;1.20;0.73;;;;;;;17.08;nan;100437.38;4988938;28;20038;-73
2022/06/07 01:41:56;;;;;;;1.42;0.90;;;;;;;17.07;nan;100432.25;4991158;28;20045;-73
2022/06/07 01:44:22;;;;;;;0.80;0.70;;;;;;;17.04;nan;100437.97;4986039;28;20643;-74
2022/06/07 01:46:48;;;;;;;1.02;0.73;;;;;;;17.03;nan;100433.66;4985137;28;20038;-73
2022/06/07 01:49:14;;;;;;;1.35;0.80;;;;;;;17.01;nan;100428.50;4987529;28;20218;-73
2022/06/07 01:51:39;;;;;;;1.15;0.80;;;;;;;16.99;nan;100425.19;4988191;28;20053;-73
2022/06/07 01:54:05;;;;;;;1.35;0.82;;;;;;;17.00;nan;100428.72;4983458;28;20108;-73
2022/06/07 01:56:31;;;;;;;1.27;0.70;;;;;;;16.99;nan;100433.22;4986995;28;20034;-73
2022/06/07 01:58:57;;;;;;;0.90;0.60;;;;;;;16.97;nan;100424.56;4988262;28;20471;-73
2022/06/07 02:01:23;;;;;;;1.85;1.00;;;;;;;16.94;nan;100417.78;4987601;28;20053;-73
2022/06/07 02:03:48;;;;;;;1.77;0.80;;;;;;;16.94;nan;100422.28;4988148;28;20031;-73
2022/06/07 02:06:14;;;;;;;1.50;0.80;;;;;;;16.91;nan;100417.34;4986926;28;20117;-73
2022/06/07 02:08:41;;;;;;;1.40;0.80;;;;;;;16.89;nan;100424.72;4988104;28;20495;-73
2022/06/07 02:11:26;;;;;;;1.27;0.90;;;;;;;16.85;nan;100428.81;4987203;28;20077;-73
2022/06/07 02:13:52;;;;;;;1.60;1.10;;;;;;;16.82;nan;100423.84;4985846;28;20030;-73
2022/06/07 02:16:19;;;;;;;1.55;1.00;;;;;;;16.79;nan;100419.72;4985774;28;20044;-73
2022/06/07 02:18:46;;;;;;;3.35;1.10;;;;;;;16.79;nan;100425.06;4988307;28;20031;-73
2022/06/07 02:21:12;;;;;;;2.17;1.10;;;;;;;16.74;nan;100422.97;4987785;28;20141;-73
2022/06/07 02:23:37;;;;;;;3.25;1.45;;;;;;;16.70;nan;100415.53;4988113;28;20523;-73
2022/06/07 02:26:38;;;;;;;1.58;1.15;;;;;;;16.60;nan;100417.72;4988442;28;20437;-73
2022/06/07 02:29:12;;;;;;;2.70;1.63;;;;;;;16.45;nan;100418.63;4953891;28;20041;-74
2022/06/07 02:31:41;;;;;;;2.85;1.48;;;;;;;16.43;nan;100418.00;4987855;28;20038;-73
2022/06/07 02:34:08;;;;;;;3.03;1.50;;;;;;;16.42;nan;100410.19;4986278;28;20026;-73
2022/06/07 02:36:35;;;;;;;2.92;1.67;;;;;;;16.40;nan;100412.19;4987763;28;20038;-72
2022/06/07 02:39:02;;;;;;;3.10;1.60;;;;;;;16.40;nan;100407.72;4992520;28;20499;-73
2022/06/07 02:41:31;;;;;;;1.75;1.40;;;;;;;16.39;nan;100400.72;4987963;28;20046;-73
2022/06/07 02:43:56;;;;;;;3.60;1.50;;;;;;;16.39;nan;100402.56;4987446;28;20047;-73
2022/06/07 02:46:22;;;;;;;2.83;1.58;;;;;;;16.40;nan;100401.53;4989265;28;20038;-73
2022/06/07 02:48:47;;;;;;;2.35;1.33;;;;;;;16.42;nan;100395.00;4986813;28;20050;-73
2022/06/07 02:51:12;;;;;;;3.30;1.40;;;;;;;16.42;nan;100395.00;4990322;28;20142;-73
2022/06/07 02:53:38;;;;;;;1.83;1.25;;;;;;;16.44;nan;100394.78;4982583;28;20126;-73
2022/06/07 02:56:04;;;;;;;2.05;1.38;;;;;;;16.44;nan;100392.94;4989127;28;20030;-74
2022/06/07 02:58:30;;;;;;;2.20;1.30;;;;;;;16.46;nan;100393.59;4991691;28;20089;-73
2022/06/07 03:00:58;;;;;;;2.83;1.30;;;;;;;16.46;nan;100384.75;4991253;28;20038;-73
2022/06/07 03:03:24;;;;;;;2.00;1.50;;;;;;;16.46;nan;100385.56;4976823;28;20117;-73
2022/06/07 03:05:49;;;;;;;2.25;1.48;;;;;;;16.45;nan;100393.78;4991699;28;20483;-73
2022/06/07 03:08:15;;;;;;;3.72;1.52;;;;;;;16.46;nan;100392.75;4988527;28;20480;-73
2022/06/07 03:10:41;;;;;;;1.75;1.27;;;;;;;16.45;nan;100394.63;4991896;28;20042;-72
2022/06/07 03:13:06;;;;;;;2.22;1.33;;;;;;;16.45;nan;100388.47;4991908;28;20133;-73
2022/06/07 03:15:31;;;;;;;2.90;1.40;;;;;;;16.44;nan;100392.13;4990027;28;20057;-73
2022/06/07 03:17:57;;;;;;;2.28;1.30;;;;;;;16.42;nan;100392.34;4991607;28;20395;-73
2022/06/07 03:20:22;;;;;;;2.00;1.45;;;;;;;16.41;nan;100398.69;4989897;28;20367;-73
2022/06/07 03:22:47;;;;;;;2.60;1.30;;;;;;;16.42;nan;100402.16;4990767;28;20234;-73
2022/06/07 03:25:12;;;;;;;1.20;1.00;;;;;;;16.43;nan;100393.97;4990173;28;20125;-73
2022/06/07 03:27:39;;;;;;;1.70;1.20;;;;;;;16.44;nan;100400.94;4992287;28;20277;-73
2022/06/07 03:30:06;;;;;;;2.13;1.20;;;;;;;16.43;nan;100393.16;4988702;28;20034;-73
2022/06/07 03:32:32;;;;;;;1.73;1.20;;;;;;;16.41;nan;100400.53;4990674;28;20106;-73
2022/06/07 03:34:58;;;;;;;3.15;1.20;;;;;;;16.38;nan;100404.41;4991263;28;20042;-73
2022/06/07 03:37:23;;;;;;;1.85;1.40;;;;;;;16.38;nan;100400.94;4994220;28;20034;-73
2022/06/07 03:39:48;;;;;;;2.67;1.65;;;;;;;16.39;nan;100407.91;4991701;28;20133;-73
2022/06/07 03:42:13;;;;;;;2.33;1.30;;;;;;;16.41;nan;100403.19;4988828;28;20037;-73
2022/06/07 03:44:40;;;;;;;1.98;1.30;;;;;;;16.42;nan;100408.34;4990234;28;20038;-73
2022/06/07 03:47:06;;;;;;;1.50;1.00;;;;;;;16.44;nan;100411.63;4986312;28;20081;-73
2022/06/07 03:49:31;;;;;;;2.20;1.20;;;;;;;16.44;nan;100408.97;4986727;28;20049;-73
2022/06/07 03:51:57;;;;;;;3.65;1.45;;;;;;;16.47;nan;100411.25;4991090;28;20038;-73
2022/06/07 03:54:23;;;;;;;2.20;1.48;;;;;;;16.46;nan;100419.44;4990033;28;20035;-73
2022/06/07 03:56:48;;;;;;;3.00;1.58;;;;;;;16.43;nan;100420.66;4992745;28;20042;-73
2022/06/07 03:59:13;;;;;;;2.30;1.52;;;;;;;16.43;nan;100419.84;4989473;28;20117;-73
2022/06/07 04:01:39;;;;;;;3.28;1.40;;;;;;;16.42;nan;100421.69;4989902;28;20297;-72
2022/06/07 04:04:07;;;;;;;3.25;1.42;;;;;;;16.39;nan;100419.41;4990038;28;20037;-73
2022/06/07 04:06:39;;;;;;;2.25;1.42;;;;;;;16.39;nan;100418.56;4990625;28;20061;-73
2022/06/07 04:09:04;;;;;;;2.60;1.40;;;;;;;16.38;nan;100414.28;4988992;28;20085;-73
2022/06/07 04:11:30;;;;;;;2.38;1.50;;;;;;;16.37;nan;100421.44;4989782;28;20050;-72
2022/06/07 04:13:57;;;;;;;3.55;1.45;;;;;;;16.35;nan;100415.44;4988921;28;20049;-72
2022/06/07 04:16:25;;;;;;;2.80;1.40;;;;;;;16.29;nan;100424.25;4987119;28;20089;-74
2022/06/07 04:18:51;;;;;;;2.70;1.50;;;;;;;16.22;nan;100426.03;4989237;28;20114;-73
2022/06/07 04:21:17;;;;;;;1.70;1.30;;;;;;;16.18;nan;100424.75;4970068;28;20043;-73
2022/06/07 04:23:43;;;;;;;1.95;1.48;;;;;;;16.14;nan;100424.31;4989803;28;20034;-73
2022/06/07 04:26:18;;;;;;;1.88;1.10;;;;;;;16.14;nan;100414.47;4994250;28;20042;-73
2022/06/07 04:28:43;;;;;;;2.70;1.30;;;;;;;16.16;nan;100413.44;4987637;28;20030;-73
2022/06/07 04:31:11;;;;;;;2.70;1.30;;;;;;;16.16;nan;100424.97;4989337;28;20046;-73
2022/06/07 04:33:36;;;;;;;3.58;1.33;;;;;;;16.15;nan;100415.28;4988509;28;20045;-73
2022/06/07 04:36:03;;;;;;;2.00;1.25;;;;;;;16.12;nan;100418.34;4986209;28;20031;-74
2022/06/07 04:38:29;;;;;;;1.40;1.10;;;;;;;16.09;nan;100430.22;4995191;28;20038;-73
2022/06/07 04:40:55;;;;;;;2.13;1.10;;;;;;;16.07;nan;100426.91;4990291;28;20035;-73
2022/06/07 04:43:20;;;;;;;1.23;0.98;;;;;;;16.04;nan;100429.97;4970974;28;20680;-73
2022/06/07 04:45:45;;;;;;;2.10;1.10;;;;;;;16.07;nan;100429.59;4990362;28;20030;-73
2022/06/07 04:48:11;;;;;;;2.05;1.08;;;;;;;16.20;nan;100431.53;4988883;28;20061;-72
2022/06/07 04:50:37;;;;;;;1.52;1.20;;;;;;;16.38;nan;100435.63;4989480;28;20492;-72
2022/06/07 04:53:02;;;;;;;2.30;1.40;;;;;;;16.50;nan;100432.22;4988616;28;20124;-72
2022/06/07 04:55:28;;;;;;;1.85;1.23;;;;;;;16.61;nan;100438.88;4990512;28;20053;-72
2022/06/07 04:57:53;;;;;;;3.22;1.27;;;;;;;16.71;nan;100439.38;4991392;28;20122;-72
2022/06/07 05:00:19;;;;;;;2.78;1.20;;;;;;;16.81;nan;100447.06;4986203;28;20061;-72
2022/06/07 05:02:46;;;;;;;1.90;1.33;;;;;;;16.86;nan;100446.50;4986939;28;20030;-72
2022/06/07 05:05:14;;;;;;;3.25;1.42;;;;;;;16.95;nan;100448.00;4984025;28;20126;-72
2022/06/07 05:07:39;;;;;;;1.70;1.13;;;;;;;17.11;nan;100450.38;4989421;28;20042;-72
2022/06/07 05:10:08;;;;;;;1.95;1.00;;;;;;;17.29;nan;100446.34;4989123;28;20030;-73
2022/06/07 05:12:34;;;;;;;1.83;1.30;;;;;;;17.32;nan;100443.25;4989206;28;20038;-72
2022/06/07 05:15:00;;;;;;;1.75;1.15;;;;;;;17.26;nan;100441.41;4989232;28;20034;-72
2022/06/07 05:17:25;;;;;;;1.95;1.40;;;;;;;17.14;nan;100447.28;4989585;28;20030;-72
2022/06/07 05:19:51;;;;;;;2.60;1.30;;;;;;;17.01;nan;100449.88;4969616;28;20046;-72
2022/06/07 05:22:16;;;;;;;1.95;1.30;;;;;;;16.83;nan;100455.72;4989591;28;20408;-72
2022/06/07 05:24:41;;;;;;;2.70;1.30;;;;;;;16.72;nan;100456.22;4988829;28;20034;-72
2022/06/07 05:27:08;;;;;;;1.40;1.10;;;;;;;16.67;nan;100461.31;4991903;28;20649;-72
2022/06/07 05:29:44;;;;;;;2.72;1.40;;;;;;;16.67;nan;100455.97;4966670;28;20718;-72
2022/06/07 05:32:09;;;;;;;2.67;1.30;;;;;;;16.77;nan;100462.63;4983868;28;20062;-72
2022/06/07 05:34:34;;;;;;;2.13;1.40;;;;;;;16.94;nan;100460.50;4986169;28;20065;-72
2022/06/07 05:36:59;;;;;;;2.08;1.08;;;;;;;17.06;nan;100463.47;4991302;28;20041;-72
2022/06/07 05:39:27;;;;;;;2.90;1.30;;;;;;;17.11;nan;100461.06;4993553;28;20520;-72
2022/06/07 05:41:53;;;;;;;2.40;1.30;;;;;;;17.08;nan;100468.63;4988928;28;20479;-72
2022/06/07 05:44:20;;;;;;;1.60;1.13;;;;;;;17.07;nan;100475.81;4986707;28;20030;-72
2022/06/07 05:46:46;;;;;;;1.75;1.20;;;;;;;17.05;nan;100474.38;4989426;28;20026;-72
2022/06/07 05:49:12;;;;;;;2.25;1.10;;;;;;;17.02;nan;100472.06;4988020;28;20096;-72
2022/06/07 05:51:38;;;;;;;1.33;1.00;;;;;;;16.99;nan;100475.94;4987773;28;20061;-72
2022/06/07 05:54:04;;;;;;;1.33;0.90;;;;;;;17.22;nan;100482.91;4987923;28;20093;-72
2022/06/07 05:56:30;;;;;;;3.15;1.20;;;;;;;17.64;nan;100481.88;4988695;28;20253;-73
2022/06/07 05:58:55;;;;;;;2.45;1.10;;;;;;;18.03;nan;100481.22;4989218;28;20038;-73
2022/06/07 06:01:20;;;;;;;1.80;1.08;;;;;;;18.46;nan;100486.22;4988988;28;20038;-73
2022/06/07 06:03:46;;;;;;;3.35;1.30;;;;;;;18.98;nan;100488.34;4987848;28;20056;-72
2022/06/07 06:06:13;;;;;;;2.42;1.23;;;;;;;19.16;nan;100483.13;4987781;28;20133;-73
2022/06/07 06:11:24;;;;;;;2.05;1.30;;;;;;;19.54;nan;100479.72;4987691;28;20554;-72
2022/06/07 06:13:50;;;;;;;2.47;1.25;;;;;;;19.93;nan;100478.78;4984070;28;20030;-72
2022/06/07 06:16:20;;;;;;;1.80;1.20;;;;;;;20.26;nan;100483.13;4987528;28;20041;-72
2022/06/07 06:18:48;;;;;;;2.65;1.30;;;;;;;20.58;nan;100483.94;4985773;28;20034;-73
2022/06/07 06:21:13;;;;;;;2.67;1.33;;;;;;;20.77;nan;100489.38;4987981;28;20034;-72
2022/06/07 06:23:38;;;;;;;1.88;1.13;;;;;;;20.83;nan;100488.50;4987906;28;20550;-73
2022/06/07 06:26:13;;;;;;;2.42;1.27;;;;;;;21.00;nan;100488.78;4988716;28;20049;-73
2022/06/07 06:28:38;;;;;;;3.03;1.05;;;;;;;21.25;nan;100482.53;4985302;28;20038;-73
2022/06/07 06:31:06;;;;;;;3.85;1.42;;;;;;;21.59;nan;100479.25;4988125;28;20093;-72
2022/06/07 06:33:37;;;;;;;1.73;0.80;;;;;;;21.98;nan;100481.69;4990310;28;20030;-73
2022/06/07 06:36:02;;;;;;;1.67;0.95;;;;;;;22.54;nan;100476.94;4990357;28;20034;-71
2022/06/07 06:38:30;;;;;;;1.90;0.90;;;;;;;23.05;nan;100476.28;4994460;28;20038;-72
2022/06/07 06:40:55;;;;;;;1.83;0.90;;;;;;;23.26;nan;100472.16;4991097;28;20041;-72
2022/06/07 06:43:21;;;;;;;2.42;0.93;;;;;;;23.51;nan;100474.56;4992054;28;20035;-71
2022/06/07 06:45:46;;;;;;;1.10;0.80;;;;;;;23.95;nan;100474.94;4992639;28;20761;-71
2022/06/07 06:48:12;;;;;;;1.15;0.70;;;;;;;23.86;nan;100470.13;4993104;28;20109;-72
2022/06/07 06:50:38;;;;;;;2.50;1.02;;;;;;;23.95;nan;100464.13;4991398;28;20100;-72
2022/06/07 06:53:04;;;;;;;1.42;0.73;;;;;;;24.14;nan;100467.41;4991224;28;20519;-71
2022/06/07 06:55:30;;;;;;;2.88;1.10;;;;;;;24.25;nan;100468.41;4992497;28;20522;-71
2022/06/07 06:57:55;;;;;;;1.27;0.63;;;;;;;24.46;nan;100472.31;4991259;28;20500;-71
2022/06/07 07:00:21;;;;;;;1.67;0.70;;;;;;;24.83;nan;100473.69;4989595;28;20050;-74
2022/06/07 07:02:47;;;;;;;1.27;0.80;;;;;;;25.20;nan;100471.28;4987737;28;20496;-73
2022/06/07 07:05:14;;;;;;;1.90;0.70;;;;;;;25.52;nan;100471.41;4991253;28;20038;-73
2022/06/07 07:07:40;;;;;;;1.77;0.88;;;;;;;25.52;nan;100476.84;4994228;28;20030;-71
2022/06/07 07:10:07;;;;;;;2.80;1.00;;;;;;;25.50;nan;100473.56;4989253;28;20129;-72
2022/06/07 07:12:34;;;;;;;1.45;0.82;;;;;;;25.73;nan;100482.50;4987803;28;20123;-71
2022/06/07 07:14:59;;;;;;;2.10;0.80;;;;;;;25.84;nan;100468.00;4990274;28;20427;-74
2022/06/07 07:17:25;;;;;;;1.85;0.60;;;;;;;25.87;nan;100475.66;4989349;28;20105;-72
2022/06/07 07:19:50;;;;;;;1.88;0.80;;;;;;;25.91;nan;100475.94;4990482;28;20035;-72
2022/06/07 07:22:17;;;;;;;1.70;0.80;;;;;;;25.78;nan;100469.81;4989265;28;20034;-74
2022/06/07 07:24:42;;;;;;;1.95;0.93;;;;;;;25.35;nan;100474.19;4971543;28;20062;-72
2022/06/07 07:27:08;;;;;;;1.48;0.70;;;;;;;25.27;nan;100473.81;4990618;28;20057;-72
2022/06/07 07:29:33;;;;;;;1.92;0.68;;;;;;;25.31;nan;100475.75;4985959;28;20342;-72
2022/06/07 07:31:59;;;;;;;1.83;0.90;;;;;;;25.25;nan;100473.25;4987342;28;20057;-72
2022/06/07 07:34:24;;;;;;;1.40;0.77;;;;;;;25.01;nan;100466.13;4988360;28;20049;-74
2022/06/07 07:36:53;;;;;;;1.52;0.80;;;;;;;24.71;nan;100461.09;4988254;28;20097;-74
2022/06/07 07:39:18;;;;;;;2.10;0.70;;;;;;;24.26;nan;100459.25;4995259;28;20038;-72
2022/06/07 07:41:48;;;;;;;2.50;0.95;;;;;;;23.93;nan;100462.69;4989122;28;20035;-72
2022/06/07 07:44:14;;;;;;;2.45;0.70;;;;;;;23.78;nan;100470.53;4988510;28;20038;-74
2022/06/07 07:46:43;;;;;;;1.50;0.80;;;;;;;23.89;nan;100467.78;4988838;28;20046;-71
2022/06/07 07:49:08;;;;;;;1.85;0.80;;;;;;;23.85;nan;100473.91;4968465;28;20043;-71
2022/06/07 07:51:37;;;;;;;1.25;0.60;;;;;;;23.99;nan;100469.03;4988727;28;20403;-71
2022/06/07 07:54:05;;;;;;;1.40;0.70;;;;;;;24.41;nan;100460.56;4988660;28;20043;-71
2022/06/07 07:56:31;;;;;;;1.35;0.52;;;;;;;24.78;nan;100464.44;4987693;28;20054;-71
2022/06/07 07:58:57;;;;;;;1.52;0.82;;;;;;;25.34;nan;100460.94;4989567;28;20089;-72
2022/06/07 08:01:26;;;;;;;2.35;0.60;;;;;;;25.91;nan;100463.22;4988994;28;20460;-71
2022/06/07 08:03:54;;;;;;;1.10;0.50;;;;;;;26.46;nan;100458.59;4990697;28;20035;-72
2022/06/07 08:06:21;;;;;;;1.42;0.63;;;;;;;27.03;nan;100457.91;4988048;28;20392;-72
2022/06/07 08:08:49;;;;;;;2.33;0.85;;;;;;;27.46;nan;100449.69;4950548;28;1067100;-72
2022/06/07 08:11:15;;;;;;;1.15;0.55;;;;;;;27.70;nan;100459.03;4992789;28;20042;-72
2022/06/07 08:13:44;;;;;;;1.75;0.70;;;;;;;27.83;nan;100454.19;4990548;28;20039;-72
2022/06/07 08:16:11;;;;;;;0.95;0.60;;;;;;;28.26;nan;100450.16;4988237;28;20362;-72
2022/06/07 08:18:36;;;;;;;;;;;;;;;28.45;nan;100445.00;4990602;28;20034;-72
2022/06/07 08:21:06;;;;;;;0.98;0.68;;;;;;;28.73;nan;100443.66;4990301;28;19928;-72
2022/06/07 08:23:32;;;;;;;2.30;0.70;;;;;;;29.15;nan;100445.22;4989375;28;20037;-72
2022/06/07 08:26:00;;;;;;;1.55;0.70;;;;;;;29.81;nan;100430.44;4990560;28;20065;-72
2022/06/07 08:28:26;;;;;;;2.28;0.52;;;;;;;30.23;nan;100433.72;4989461;28;20101;-72
2022/06/07 08:30:52;;;;;;;0.80;0.40;;;;;;;30.65;nan;100426.78;4968398;28;20461;-72
2022/06/07 08:38:54;;;;;;;1.13;0.50;;;;;;;31.77;nan;100424.63;4992833;28;20077;-72
2022/06/07 08:41:31;;;;;;;0.52;0.40;;;;;;;32.04;nan;100421.25;4985520;28;20507;-72
2022/06/07 08:44:04;;;;;;;1.25;0.30;;;;;;;32.36;nan;100417.69;4990306;28;20034;-72
2022/06/07 08:46:33;;;;;;;1.30;0.50;;;;;;;32.42;nan;100423.91;4989169;28;20064;-72
2022/06/07 08:49:00;;;;;;;0.63;0.50;;;;;;;32.44;nan;100409.88;4988692;28;20038;-72
2022/06/07 08:51:28;;;;;;;0.98;0.40;;;;;;;32.08;nan;100418.72;4987806;28;20118;-72
2022/06/07 08:53:56;;;;;;;1.20;0.40;;;;;;;32.64;nan;100412.28;4989210;28;20467;-73
2022/06/07 08:56:28;;;;;;;0.63;0.30;;;;;;;33.35;nan;100414.75;4989468;28;20100;-73
2022/06/07 08:58:59;;;;;;;0.90;0.40;;;;;;;33.62;nan;100420.19;4989867;28;20161;-72
2022/06/07 09:01:24;;;;;;;1.10;0.30;;;;;;;33.46;nan;100409.84;4987413;28;20035;-72
2022/06/07 09:04:19;;;;;;;1.87;0.50;;;;;;;33.60;nan;100414.19;4988241;28;20050;-73
2022/06/07 09:06:52;;;;;;;0.93;0.52;;;;;;;33.98;nan;100408.34;4991418;28;20496;-72
2022/06/07 09:09:20;;;;;;;2.85;0.50;;;;;;;34.34;nan;100399.25;4991625;28;20042;-73
2022/06/07 09:14:45;;;;;;;1.52;0.40;;;;;;;34.70;nan;100400.25;4986842;28;20040;-72
2022/06/07 09:17:15;;;;;;;1.42;0.50;;;;;;;35.10;nan;100407.34;5001334;28;20458;-73
2022/06/07 09:19:42;;;;;;;0.73;0.40;;;;;;;34.59;nan;100397.75;5004410;28;20122;-72
2022/06/07 09:22:16;;;;;;;1.02;0.50;;;;;;;33.20;nan;100399.41;5005080;28;20034;-72
2022/06/07 09:24:51;;;;;;;1.65;0.55;;;;;;;31.87;nan;100391.69;4998621;28;20031;-72
2022/06/07 09:27:20;;;;;;;1.40;0.70;;;;;;;31.05;nan;100389.25;4990765;28;20030;-71
2022/06/07 09:29:53;;;;;;;0.70;0.52;;;;;;;30.66;nan;100392.94;4972291;28;20062;-72
2022/06/07 09:32:19;;;;;;;2.85;0.50;;;;;;;30.18;nan;100392.84;4992250;28;20026;-71
2022/06/07 09:34:54;;;;;;;1.33;0.60;;;;;;;30.43;nan;100389.06;5000303;28;20108;-71
2022/06/07 09:37:26;;;;;;;1.02;0.57;;;;;;;30.48;nan;100391.75;4999174;28;20530;-74
2022/06/07 09:39:59;;;;;;;0.63;0.30;;;;;;;29.61;nan;100387.78;4988160;28;20046;-71
2022/06/07 09:42:27;;;;;;;1.50;0.52;;;;;;;29.75;nan;100388.00;4986224;28;20035;-72
2022/06/07 09:45:02;;;;;;;2.17;0.60;;;;;;;31.58;nan;100375.44;4988290;28;20105;-72
2022/06/07 09:47:30;;;;;;;2.28;0.50;;;;;;;32.78;nan;100374.78;4987929;28;20563;-75
2022/06/07 09:50:11;;;;;;;0.95;0.50;;;;;;;33.45;nan;100367.91;4987480;28;20026;-72
2022/06/07 09:52:52;;;;;;;1.38;0.50;;;;;;;33.99;nan;100370.75;4987800;28;20039;-72
2022/06/07 09:55:20;;;;;;;;;;;;;;;34.59;nan;100377.75;4989135;28;20065;-72
2022/06/07 09:58:22;;;;;;;1.33;0.40;;;;;;;35.36;nan;100381.06;4988509;28;19918;-72
2022/06/07 10:00:54;;;;;;;1.25;0.50;;;;;;;34.83;nan;100367.19;4966358;28;20049;-72
2022/06/07 10:03:30;;;;;;;1.40;0.75;;;;;;;33.55;nan;100364.91;4991943;28;20034;-73
2022/06/07 10:06:04;;;;;;;1.05;0.60;;;;;;;33.67;nan;100361.66;4986895;28;20035;-73
2022/06/07 10:09:12;;;;;;;1.70;0.60;;;;;;;33.29;nan;100361.97;4985588;28;20050;-73
2022/06/07 10:11:53;;;;;;;1.40;0.90;;;;;;;32.76;nan;100363.31;4988486;28;20042;-73
2022/06/07 10:14:28;;;;;;;1.83;0.80;;;;;;;32.12;nan;100348.63;4990446;28;20034;-73
2022/06/07 10:17:30;;;;;;;1.58;0.50;;;;;;;32.50;nan;100348.50;4982119;28;20039;-72
2022/06/07 10:20:09;;;;;;;1.55;0.50;;;;;;;31.40;nan;100348.94;4989016;28;20042;-73
2022/06/07 10:22:45;;;;;;;1.02;0.63;;;;;;;30.73;nan;100344.28;4989092;28;20047;-72
2022/06/07 10:25:24;;;;;;;1.52;0.60;;;;;;;30.71;nan;100345.69;4987633;28;20038;-73
2022/06/07 10:28:11;;;;;;;3.17;0.70;;;;;;;30.68;nan;100347.88;4990190;28;20042;-72
2022/06/07 10:30:43;;;;;;;1.65;0.70;;;;;;;30.34;nan;100342.50;4989737;28;20049;-72
2022/06/07 10:33:16;;;;;;;1.00;0.52;;;;;;;29.79;nan;100345.41;4987080;28;20038;-73
2022/06/07 10:35:54;;;;;;;2.05;0.73;;;;;;;29.08;nan;100343.13;4988410;28;20071;-74
2022/06/07 10:38:51;;;;;;;2.13;0.70;;;;;;;28.33;nan;100338.41;4986360;28;20058;-73
2022/06/07 10:41:31;;;;;;;1.15;0.50;;;;;;;27.80;nan;100337.88;4983189;28;20035;-71
2022/06/07 10:44:13;;;;;;;1.17;0.63;;;;;;;27.71;nan;100332.97;4986034;28;20046;-72
2022/06/07 10:46:42;;;;;;;2.22;1.17;;;;;;;27.90;nan;100330.56;4989908;28;20495;-71
2022/06/07 10:49:13;;;;;;;1.77;0.73;;;;;;;28.03;nan;100331.09;4989771;28;20395;-71
2022/06/07 10:55:07;;;;;;;2.08;1.02;;;;;;;28.58;nan;100338.38;4984122;28;20053;-72
2022/06/07 10:57:57;;;;;;;1.40;0.60;;;;;;;28.02;nan;100324.03;4987745;28;20045;-73
2022/06/07 11:00:41;;;;;;;3.10;0.80;;;;;;;27.79;nan;100328.06;4988459;28;20108;-73
2022/06/07 11:03:15;;;;;;;1.08;0.57;;;;;;;27.60;nan;100322.34;4989871;28;20361;-73
2022/06/07 11:11:20;;;;;;;1.23;0.60;;;;;;;27.38;nan;100312.56;4990104;28;20046;-73
2022/06/07 11:13:54;;;;;;;1.42;0.70;;;;;;;27.30;nan;100316.63;4989446;28;20274;-72
2022/06/07 11:16:59;;;;;;;1.38;0.57;;;;;;;27.08;nan;100316.00;4988977;28;20026;-73
2022/06/07 11:19:25;;;;;;;1.00;0.55;;;;;;;26.91;nan;100310.78;4986559;28;20058;-73
2022/06/07 11:21:55;;;;;;;2.38;1.40;;;;;;;26.78;nan;100314.78;4992989;28;20066;-72
2022/06/07 11:24:27;;;;;;;1.38;0.85;;;;;;;26.64;nan;100308.22;4980483;28;20030;-73
2022/06/07 11:26:52;;;;;;;1.35;0.60;;;;;;;26.44;nan;100319.75;4995424;28;20040;-73
2022/06/07 11:29:21;;;;;;;2.40;1.10;;;;;;;26.31;nan;100312.88;4992726;28;20125;-73
2022/06/07 11:31:47;;;;;;;2.42;1.30;;;;;;;26.41;nan;100304.81;4993304;28;20031;-72
2022/06/07 11:34:22;;;;;;;2.38;1.63;;;;;;;26.61;nan;100306.03;4993763;28;20031;-72
2022/06/07 11:36:47;;;;;;;2.13;1.30;;;;;;;26.88;nan;100303.97;5003254;28;20026;-73
2022/06/07 11:39:30;;;;;;;2.28;1.38;;;;;;;27.30;nan;100300.31;4998590;28;20458;-72
2022/06/07 11:42:17;;;;;;;2.33;0.88;;;;;;;27.94;nan;100298.22;4998248;28;20125;-73
2022/06/07 11:44:42;;;;;;;1.15;0.50;;;;;;;28.18;nan;100295.75;4996107;28;20073;-73
2022/06/07 11:47:07;;;;;;;0.40;0.40;;;;;;;27.91;nan;100291.44;4990414;28;20261;-74
2022/06/07 11:49:45;;;;;;;0.83;0.40;;;;;;;27.47;nan;100291.13;4990300;28;20038;-74
2022/06/07 11:52:13;;;;;;;1.27;0.52;;;;;;;26.97;nan;100284.47;4982047;28;20289;-74
2022/06/07 11:54:51;;;;;;;0.98;0.57;;;;;;;26.55;nan;100290.81;4989186;28;20453;-74
2022/06/07 11:57:35;;;;;;;1.60;0.60;;;;;;;26.20;nan;100286.78;4987120;28;20035;-74
2022/06/07 12:00:19;;;;;;;2.22;0.60;;;;;;;25.84;nan;100287.31;4998726;28;20049;-74
2022/06/07 12:02:54;;;;;;;2.25;0.70;;;;;;;25.60;nan;100286.84;4974534;28;20109;-73
2022/06/07 12:05:26;;;;;;;1.48;0.60;;;;;;;25.48;nan;100291.63;4995629;28;20084;-74
2022/06/07 12:08:06;;;;;;;0.93;0.40;;;;;;;25.36;nan;100280.94;4994140;28;20560;-73
2022/06/07 12:10:36;;;;;;;0.98;0.52;;;;;;;25.41;nan;100277.47;4990006;28;20685;-73
2022/06/07 12:13:13;;;;;;;1.00;0.60;;;;;;;25.55;nan;100281.41;4989984;28;20034;-73
2022/06/07 12:15:49;;;;;;;0.45;0.40;;;;;;;25.77;nan;100272.38;4990346;28;20030;-73
2022/06/07 12:18:26;;;;;;;0.60;0.50;;;;;;;25.88;nan;100276.81;4995133;28;20496;-74